Time;durP1;ratioP1;P1;durP2;ratioP2;P2;SDS_P1;SDS_P2;PMS_P1;PMS_P2;Temp;Humidity;BMP_temperature;BMP_pressure;BME280_temperature;BME280_humidity;BME280_pressure;Samples;Min_cycle;Max_cycle;Signal;HPM_P1;HPM_P2
2022/09/06 00:03:23;;;;;;;3.70;2.40;;;23.70;58.80;;;;;;220700;1265;25444;-60
2022/09/06 00:08:28;;;;;;;3.80;2.40;;;23.80;59.10;;;;;;220554;1265;24779;-62
2022/09/06 00:13:34;;;;;;;3.70;2.30;;;23.70;58.70;;;;;;220324;1268;22560;-62
2022/09/06 00:18:39;;;;;;;3.70;2.20;;;23.70;58.70;;;;;;220661;1265;22552;-60
2022/09/06 00:23:43;;;;;;;5.90;2.40;;;23.70;58.70;;;;;;220784;1265;24294;-59
2022/09/06 00:28:51;;;;;;;3.90;2.20;;;23.70;58.70;;;;;;220731;1265;25281;-60
2022/09/06 00:33:56;;;;;;;3.50;2.60;;;23.70;59.30;;;;;;220828;1265;22512;-58
2022/09/06 00:39:01;;;;;;;3.20;2.20;;;23.70;58.70;;;;;;220438;1268;25441;-58
2022/09/06 00:44:22;;;;;;;4.30;2.30;;;23.70;58.80;;;;;;220277;1268;22570;-61
2022/09/06 00:49:33;;;;;;;3.40;2.30;;;23.60;58.80;;;;;;220714;1265;24222;-59
2022/09/06 00:54:38;;;;;;;4.60;2.60;;;23.60;58.60;;;;;;220642;1265;25497;-59
2022/09/06 00:59:42;;;;;;;3.70;2.60;;;23.60;58.70;;;;;;220699;1265;23517;-60
2022/09/06 01:04:48;;;;;;;3.90;2.40;;;23.60;58.40;;;;;;220554;1265;22564;-59
2022/09/06 01:10:20;;;;;;;4.00;2.20;;;23.60;58.70;;;;;;220611;1265;24182;-60
2022/09/06 01:15:36;;;;;;;2.60;1.80;;;23.60;58.50;;;;;;220572;1265;25488;-61
2022/09/06 01:21:17;;;;;;;3.50;2.40;;;23.60;58.20;;;;;;220288;1267;22591;-58
2022/09/06 01:26:46;;;;;;;5.50;2.20;;;23.60;58.50;;;;;;220558;1265;22522;-61
2022/09/06 01:31:56;;;;;;;3.00;2.10;;;23.50;58.40;;;;;;220496;1265;22548;-61
2022/09/06 01:37:05;;;;;;;3.40;2.30;;;23.60;58.60;;;;;;220680;1265;22537;-59
2022/09/06 01:42:21;;;;;;;3.00;1.90;;;23.50;58.60;;;;;;220625;1265;24300;-60
2022/09/06 01:48:05;;;;;;;3.80;2.20;;;23.50;58.90;;;;;;220630;1267;22704;-61
2022/09/06 01:53:32;;;;;;;4.20;2.10;;;23.50;58.60;;;;;;220747;1267;24215;-60
2022/09/06 01:59:16;;;;;;;3.00;2.20;;;23.50;58.50;;;;;;220670;1265;24276;-58
2022/09/06 02:04:35;;;;;;;3.40;2.20;;;23.50;58.50;;;;;;220620;1265;25274;-59
2022/09/06 02:09:42;;;;;;;2.70;1.90;;;23.50;58.50;;;;;;220593;1265;22642;-59
2022/09/06 02:14:55;;;;;;;2.60;1.90;;;23.50;58.60;;;;;;220825;1265;23896;-59
2022/09/06 02:20:09;;;;;;;3.10;2.10;;;23.50;58.80;;;;;;220393;1267;25306;-60
2022/09/06 02:25:25;;;;;;;4.10;2.10;;;23.50;58.70;;;;;;220655;1265;22558;-60
2022/09/06 02:30:29;;;;;;;2.80;2.00;;;23.50;57.70;;;;;;220678;1265;22543;-60
2022/09/06 02:35:52;;;;;;;4.00;2.20;;;23.50;58.00;;;;;;220628;1265;22531;-61
2022/09/06 02:40:55;;;;;;;4.20;2.00;;;23.50;58.50;;;;;;220492;1267;23268;-59
2022/09/06 02:45:59;;;;;;;2.80;1.80;;;23.40;57.90;;;;;;220934;1265;24312;-60
2022/09/06 02:51:04;;;;;;;2.50;1.80;;;23.50;57.40;;;;;;220798;1265;22733;-62
2022/09/06 02:56:08;;;;;;;2.80;2.00;;;23.40;57.80;;;;;;221205;1265;24289;-59
2022/09/06 03:01:12;;;;;;;3.30;2.20;;;23.40;57.60;;;;;;220742;1265;24747;-62
2022/09/06 03:06:15;;;;;;;2.70;2.00;;;23.40;57.80;;;;;;220548;1265;22548;-59
2022/09/06 03:11:19;;;;;;;3.40;2.30;;;23.40;58.20;;;;;;220750;1265;24270;-63
2022/09/06 03:16:23;;;;;;;4.60;2.20;;;23.30;57.80;;;;;;220763;1265;25328;-64
2022/09/06 03:21:26;;;;;;;2.90;2.00;;;23.30;58.00;;;;;;220877;1265;24303;-60
2022/09/06 03:26:30;;;;;;;2.80;1.80;;;23.30;57.70;;;;;;220588;1265;22528;-59
2022/09/06 03:31:34;;;;;;;3.20;1.90;;;23.30;57.40;;;;;;220788;1265;22534;-60
2022/09/06 03:36:38;;;;;;;3.60;2.10;;;23.30;57.60;;;;;;220767;1265;22551;-60
2022/09/06 03:41:46;;;;;;;3.10;2.20;;;23.30;57.80;;;;;;220682;1265;22564;-59
2022/09/06 03:46:51;;;;;;;3.20;2.20;;;23.30;57.40;;;;;;220428;1267;22580;-59
2022/09/06 03:52:01;;;;;;;2.80;2.10;;;23.20;57.60;;;;;;220441;1265;22544;-62
2022/09/06 03:57:05;;;;;;;2.50;1.70;;;23.20;57.60;;;;;;220901;1265;25240;-59
2022/09/06 04:02:13;;;;;;;4.00;1.80;;;23.20;57.60;;;;;;220570;1265;22531;-61
2022/09/06 04:07:18;;;;;;;2.70;1.80;;;23.20;57.90;;;;;;220566;1264;25235;-59
2022/09/06 04:12:30;;;;;;;2.40;1.70;;;23.20;57.70;;;;;;220469;1265;25437;-60
2022/09/06 04:17:46;;;;;;;3.30;1.80;;;23.20;56.90;;;;;;220569;1265;22538;-58
2022/09/06 04:22:50;;;;;;;2.80;1.70;;;23.20;57.70;;;;;;220660;1265;22541;-59
2022/09/06 04:27:58;;;;;;;3.10;1.90;;;23.20;57.70;;;;;;220444;1265;22586;-60
2022/09/06 04:33:10;;;;;;;3.00;2.10;;;23.20;57.80;;;;;;220542;1265;23118;-59
2022/09/06 04:38:16;;;;;;;2.50;1.70;;;23.20;57.60;;;;;;220659;1265;23940;-61
2022/09/06 04:43:21;;;;;;;2.60;1.90;;;23.20;58.10;;;;;;220947;1265;22525;-60
2022/09/06 04:48:25;;;;;;;2.80;1.80;;;23.20;57.50;;;;;;221009;1265;22675;-57
2022/09/06 04:53:28;;;;;;;3.60;2.10;;;23.10;58.10;;;;;;220308;1265;22565;-60
2022/09/06 04:58:32;;;;;;;3.00;1.70;;;23.10;57.70;;;;;;220596;1265;22522;-62
2022/09/06 05:03:35;;;;;;;2.80;1.80;;;23.10;57.70;;;;;;220670;1266;23669;-58
2022/09/06 05:08:42;;;;;;;2.60;1.90;;;23.10;57.50;;;;;;221064;1265;22532;-60
2022/09/06 05:13:48;;;;;;;3.50;2.10;;;23.10;57.60;;;;;;220762;1265;25630;-60
2022/09/06 05:18:56;;;;;;;2.50;1.70;;;23.10;57.90;;;;;;220641;1265;22568;-59
2022/09/06 05:24:00;;;;;;;3.60;1.70;;;23.10;58.00;;;;;;220863;1265;24201;-59
2022/09/06 05:29:04;;;;;;;2.40;1.70;;;23.10;57.10;;;;;;220658;1265;22773;-59
2022/09/06 05:34:09;;;;;;;3.10;2.10;;;23.10;57.60;;;;;;220895;1265;22548;-60
2022/09/06 05:39:13;;;;;;;4.10;1.80;;;23.10;57.60;;;;;;220661;1265;24227;-62
2022/09/06 05:44:16;;;;;;;2.20;1.60;;;23.10;57.30;;;;;;220675;1265;22623;-60
2022/09/06 05:49:20;;;;;;;2.50;1.70;;;23.10;57.50;;;;;;220475;1267;22545;-59
2022/09/06 05:54:24;;;;;;;2.60;1.70;;;23.10;57.60;;;;;;220551;1267;22546;-61
2022/09/06 05:59:27;;;;;;;2.40;1.70;;;23.10;57.60;;;;;;220786;1265;22525;-60
2022/09/06 06:04:33;;;;;;;3.10;1.80;;;23.10;57.40;;;;;;220554;1265;24152;-60
2022/09/06 06:09:36;;;;;;;2.50;1.50;;;23.10;57.50;;;;;;220613;1265;22727;-63
2022/09/06 06:14:41;;;;;;;2.70;1.50;;;23.10;57.40;;;;;;221055;1265;22532;-59
2022/09/06 06:19:45;;;;;;;2.90;1.50;;;23.10;57.60;;;;;;220467;1265;24263;-60
2022/09/06 06:24:49;;;;;;;4.00;1.70;;;23.10;57.60;;;;;;220862;1265;22599;-60
2022/09/06 06:29:52;;;;;;;2.80;1.80;;;23.10;57.70;;;;;;220461;1265;24201;-61
2022/09/06 06:34:56;;;;;;;2.60;1.60;;;23.10;57.60;;;;;;220500;1265;24704;-58
2022/09/06 06:40:00;;;;;;;2.40;1.60;;;23.10;57.60;;;;;;220634;1265;24256;-59
2022/09/06 06:45:07;;;;;;;2.50;1.50;;;23.20;57.70;;;;;;220868;1265;24208;-59
2022/09/06 06:50:10;;;;;;;2.20;1.40;;;23.10;57.60;;;;;;220944;1267;22521;-58
2022/09/06 06:55:16;;;;;;;2.30;1.40;;;23.10;57.60;;;;;;220631;1265;24363;-62
2022/09/06 07:00:24;;;;;;;3.00;2.10;;;23.10;57.60;;;;;;220519;1265;22532;-62
2022/09/06 07:05:33;;;;;;;2.90;1.60;;;23.10;57.60;;;;;;220792;1265;22513;-61
2022/09/06 07:10:58;;;;;;;2.70;1.80;;;23.20;57.70;;;;;;220662;1265;22721;-60
2022/09/06 07:16:18;;;;;;;2.30;1.60;;;23.10;57.80;;;;;;220428;1265;22558;-60
2022/09/06 07:21:26;;;;;;;2.20;1.60;;;23.10;57.50;;;;;;220293;1267;24219;-60
2022/09/06 07:26:45;;;;;;;2.60;1.50;;;23.20;57.50;;;;;;220748;1265;22547;-58
2022/09/06 07:32:14;;;;;;;2.60;1.70;;;23.20;57.50;;;;;;220289;1267;22721;-61
2022/09/06 07:37:24;;;;;;;2.20;1.50;;;23.10;57.50;;;;;;219116;1267;1492644;-60
2022/09/06 07:42:30;;;;;;;2.20;1.50;;;23.10;57.50;;;;;;220531;1265;24784;-62
2022/09/06 07:47:39;;;;;;;3.10;1.70;;;23.20;57.50;;;;;;220283;1267;22526;-63
2022/09/06 07:53:08;;;;;;;3.00;1.90;;;23.20;57.60;;;;;;220514;1265;23162;-60
2022/09/06 07:58:18;;;;;;;2.20;1.60;;;23.10;57.50;;;;;;220441;1265;22565;-59
2022/09/06 08:03:28;;;;;;;2.50;1.70;;;23.10;57.50;;;;;;220858;1265;25917;-59
2022/09/06 08:08:35;;;;;;;2.50;1.60;;;23.10;57.40;;;;;;220952;1265;22871;-60
2022/09/06 08:14:01;;;;;;;2.40;1.50;;;23.20;57.80;;;;;;220566;1265;22991;-58
2022/09/06 08:19:12;;;;;;;4.90;2.00;;;23.10;57.50;;;;;;220527;1265;22833;-60
2022/09/06 08:24:19;;;;;;;2.40;1.60;;;23.20;57.50;;;;;;220698;1265;24363;-59
2022/09/06 08:29:26;;;;;;;3.00;1.70;;;23.20;57.40;;;;;;220552;1267;25441;-61
2022/09/06 08:34:30;;;;;;;3.10;1.80;;;23.10;57.30;;;;;;220520;1265;25370;-57
2022/09/06 08:39:33;;;;;;;3.00;1.80;;;23.20;57.40;;;;;;220231;1267;23064;-59
2022/09/06 08:44:47;;;;;;;2.40;1.60;;;23.20;57.40;;;;;;220572;1267;22943;-61
2022/09/06 08:50:04;;;;;;;4.40;2.00;;;23.30;57.40;;;;;;221088;1267;25226;-60
2022/09/06 08:55:24;;;;;;;2.30;1.40;;;23.30;57.70;;;;;;220699;1265;22745;-60
2022/09/06 09:00:35;;;;;;;2.40;1.60;;;23.30;57.30;;;;;;221016;1265;22534;-64
2022/09/06 09:05:52;;;;;;;2.90;1.60;;;23.30;57.30;;;;;;220569;1264;22526;-59
2022/09/06 09:11:09;;;;;;;3.50;1.70;;;23.40;57.30;;;;;;220492;1265;24008;-59
2022/09/06 09:16:17;;;;;;;2.30;1.50;;;23.40;57.50;;;;;;220720;1265;22537;-59
2022/09/06 09:21:28;;;;;;;;;;;23.50;57.20;;;;;;220562;1265;22516;-60
2022/09/06 09:26:53;;;;;;;2.10;1.40;;;23.50;57.10;;;;;;220538;1265;24204;-60
2022/09/06 09:31:58;;;;;;;2.80;1.60;;;23.50;57.40;;;;;;220574;1267;24219;-60
2022/09/06 09:37:33;;;;;;;2.80;1.70;;;23.50;57.10;;;;;;220300;1268;24212;-60
2022/09/06 09:43:20;;;;;;;3.20;1.90;;;23.60;57.10;;;;;;220352;1267;23179;-59
2022/09/06 09:48:27;;;;;;;3.00;1.80;;;23.50;57.60;;;;;;220597;1265;24199;-60
2022/09/06 09:53:51;;;;;;;2.80;1.70;;;23.60;57.00;;;;;;221064;1265;23973;-60
2022/09/06 09:58:57;;;;;;;2.90;1.60;;;23.60;56.90;;;;;;220546;1265;22528;-60
2022/09/06 10:04:07;;;;;;;1.80;1.40;;;23.60;56.90;;;;;;220342;1267;22530;-61
2022/09/06 10:09:38;;;;;;;2.50;1.40;;;23.60;56.90;;;;;;220896;1268;24273;-61
2022/09/06 10:14:44;;;;;;;3.00;1.70;;;23.60;56.90;;;;;;220977;1268;22527;-60
2022/09/06 10:19:48;;;;;;;2.70;1.60;;;23.70;56.90;;;;;;220480;1266;25357;-59
2022/09/06 10:25:17;;;;;;;2.20;1.40;;;23.60;57.30;;;;;;220667;1265;22691;-60
2022/09/06 10:30:51;;;;;;;2.20;1.40;;;23.70;57.00;;;;;;220806;1265;24266;-63
2022/09/06 10:36:07;;;;;;;2.30;1.60;;;23.70;56.90;;;;;;221063;1268;22663;-58
2022/09/06 10:41:41;;;;;;;2.40;1.60;;;23.70;56.80;;;;;;221247;1265;22519;-60
2022/09/06 10:47:12;;;;;;;2.30;1.40;;;23.70;56.80;;;;;;220999;1268;22530;-60
2022/09/06 10:52:27;;;;;;;2.60;1.80;;;23.80;56.80;;;;;;220781;1264;24325;-60
2022/09/06 10:57:56;;;;;;;2.70;1.60;;;23.80;56.70;;;;;;220467;1267;24364;-61
2022/09/06 11:03:44;;;;;;;2.30;1.60;;;23.80;56.60;;;;;;220367;1267;24227;-60
2022/09/06 11:09:13;;;;;;;2.80;1.80;;;23.90;56.90;;;;;;220805;1267;22625;-61
2022/09/06 11:14:21;;;;;;;2.40;1.40;;;23.90;56.80;;;;;;220596;1268;22789;-61
2022/09/06 11:19:35;;;;;;;2.30;1.60;;;23.90;56.40;;;;;;220829;1268;22551;-59
2022/09/06 11:25:16;;;;;;;4.50;1.70;;;23.90;56.50;;;;;;220851;1267;22525;-62
2022/09/06 11:30:24;;;;;;;2.60;1.60;;;23.90;56.40;;;;;;220842;1267;25304;-60
2022/09/06 11:35:31;;;;;;;2.30;1.60;;;23.90;56.70;;;;;;220572;1267;22530;-59
2022/09/06 11:40:41;;;;;;;2.80;1.60;;;24.00;56.40;;;;;;220538;1267;22773;-59
2022/09/06 11:47:01;;;;;;;;;;;;;;;;;;;;;
2022/09/06 11:53:04;;;;;;;2.50;1.40;;;24.00;56.40;;;;;;221058;1268;24354;-61
2022/09/06 11:59:26;;;;;;;2.30;1.40;;;24.00;56.30;;;;;;220670;1268;22708;-61
2022/09/06 12:04:58;;;;;;;3.20;1.60;;;24.00;56.30;;;;;;220962;1267;24056;-59
2022/09/06 12:10:40;;;;;;;2.30;1.50;;;24.00;56.60;;;;;;220715;1264;22519;-58
2022/09/06 12:15:56;;;;;;;2.50;1.70;;;24.00;56.30;;;;;;220611;1264;24393;-64
2022/09/06 12:21:44;;;;;;;2.50;1.50;;;24.10;56.30;;;;;;221043;1264;24297;-60
2022/09/06 12:27:23;;;;;;;2.60;1.50;;;24.10;56.30;;;;;;220610;1264;26562;-61
2022/09/06 12:32:55;;;;;;;2.80;1.50;;;24.10;55.90;;;;;;220590;1265;24447;-59
2022/09/06 12:39:16;;;;;;;2.60;1.70;;;24.10;56.30;;;;;;220919;1267;22523;-61
2022/09/06 12:44:57;;;;;;;2.60;1.60;;;24.10;56.20;;;;;;220712;1265;24309;-61
2022/09/06 12:50:28;;;;;;;2.80;1.70;;;24.10;56.20;;;;;;220466;1265;24266;-58
2022/09/06 12:56:33;;;;;;;2.40;1.60;;;24.10;56.20;;;;;;221002;1264;25292;-58
2022/09/06 13:02:39;;;;;;;2.80;1.60;;;24.10;56.50;;;;;;220683;1270;22646;-60
2022/09/06 13:08:44;;;;;;;2.40;1.50;;;24.10;56.10;;;;;;220657;1264;25341;-61
2022/09/06 13:14:40;;;;;;;2.50;1.50;;;24.20;56.40;;;;;;220741;1265;24267;-62
2022/09/06 13:21:20;;;;;;;2.80;1.90;;;24.20;56.60;;;;;;220438;1267;22557;-64
2022/09/06 13:27:49;;;;;;;;;;;;;;;;;;;;;
2022/09/06 13:34:06;;;;;;;;;;;24.20;56.00;;;;;;220778;1264;22866;-60
2022/09/06 13:39:37;;;;;;;3.30;1.60;;;24.30;56.00;;;;;;220654;1264;24287;-58
2022/09/06 13:44:42;;;;;;;2.70;1.50;;;24.20;56.00;;;;;;220716;1268;25232;-60
2022/09/06 13:49:53;;;;;;;2.40;1.40;;;24.20;56.00;;;;;;220520;1267;24214;-59
2022/09/06 13:54:58;;;;;;;2.70;1.70;;;24.30;56.10;;;;;;220311;1267;25598;-59
2022/09/06 14:00:02;;;;;;;3.50;1.90;;;24.20;56.30;;;;;;220702;1265;22588;-60
2022/09/06 14:05:10;;;;;;;2.60;1.70;;;24.20;56.00;;;;;;220725;1267;22525;-60
2022/09/06 14:10:14;;;;;;;2.50;1.60;;;24.20;56.00;;;;;;220551;1267;25327;-60
2022/09/06 14:15:20;;;;;;;2.20;1.50;;;24.20;56.10;;;;;;220813;1268;25484;-60
2022/09/06 14:20:24;;;;;;;2.30;1.60;;;24.20;56.40;;;;;;221047;1268;24179;-61
2022/09/06 14:25:28;;;;;;;2.50;1.50;;;24.30;56.50;;;;;;220747;1267;25336;-60
2022/09/06 14:30:53;;;;;;;3.20;1.80;;;24.20;56.50;;;;;;220706;1267;22703;-61
2022/09/06 14:36:17;;;;;;;2.50;1.50;;;24.20;56.30;;;;;;220300;1268;22524;-60
2022/09/06 14:41:28;;;;;;;2.60;1.50;;;24.20;56.20;;;;;;220538;1268;22629;-58
2022/09/06 14:46:47;;;;;;;3.70;1.60;;;24.20;56.50;;;;;;220502;1265;24307;-61
2022/09/06 14:52:31;;;;;;;1.90;1.40;;;24.20;56.30;;;;;;220292;1266;22534;-61
2022/09/06 14:57:54;;;;;;;2.30;1.50;;;24.10;56.30;;;;;;220535;1269;25282;-60
2022/09/06 15:03:36;;;;;;;2.30;1.50;;;24.20;56.30;;;;;;220403;1267;24252;-61
2022/09/06 15:09:28;;;;;;;2.10;1.20;;;24.10;56.30;;;;;;220343;1267;24201;-60
2022/09/06 15:15:23;;;;;;;2.40;1.40;;;24.10;56.30;;;;;;220554;1267;22581;-62
2022/09/06 15:21:06;;;;;;;2.60;1.50;;;24.10;56.30;;;;;;220470;1268;25509;-61
2022/09/06 15:26:30;;;;;;;4.20;1.70;;;24.20;56.40;;;;;;220553;1265;25229;-60
2022/09/06 15:31:49;;;;;;;4.20;1.60;;;24.10;56.30;;;;;;220501;1270;22555;-60
2022/09/06 15:37:22;;;;;;;4.20;1.70;;;24.10;56.40;;;;;;220460;1265;24248;-60
2022/09/06 15:42:29;;;;;;;7.90;2.40;;;24.10;56.40;;;;;;220752;1268;25236;-60
2022/09/06 15:47:38;;;;;;;2.90;1.60;;;24.10;56.50;;;;;;220574;1265;26636;-60
2022/09/06 15:52:53;;;;;;;3.40;1.50;;;24.10;56.50;;;;;;220581;1265;25610;-60
2022/09/06 15:58:13;;;;;;;;;;;;;;;;;;;;;
2022/09/06 16:03:20;;;;;;;2.90;1.70;;;24.00;57.00;;;;;;220607;1268;23902;-58
2022/09/06 16:08:29;;;;;;;3.50;1.80;;;24.00;57.00;;;;;;220443;1267;24755;-60
2022/09/06 16:13:41;;;;;;;2.70;1.50;;;24.00;56.60;;;;;;220363;1267;22826;-60
2022/09/06 16:18:50;;;;;;;2.50;1.60;;;24.00;56.80;;;;;;220528;1267;24779;-60
2022/09/06 16:24:05;;;;;;;2.80;1.70;;;24.00;56.80;;;;;;220610;1265;26460;-60
2022/09/06 16:29:13;;;;;;;2.50;1.60;;;24.00;57.30;;;;;;220733;1266;24880;-63
2022/09/06 16:34:17;;;;;;;3.80;1.70;;;24.00;56.80;;;;;;220669;1265;22585;-62
2022/09/06 16:39:22;;;;;;;2.50;1.60;;;23.90;56.70;;;;;;221044;1264;25293;-60
2022/09/06 16:44:26;;;;;;;3.40;1.70;;;23.90;56.60;;;;;;220585;1267;24218;-60
2022/09/06 16:49:34;;;;;;;3.00;1.70;;;23.90;56.70;;;;;;220567;1264;25134;-59
2022/09/06 16:54:41;;;;;;;3.20;1.80;;;23.90;56.60;;;;;;220576;1265;24059;-59
2022/09/06 16:59:47;;;;;;;2.50;1.50;;;23.90;56.90;;;;;;220445;1267;25299;-59
2022/09/06 17:04:54;;;;;;;1.90;1.40;;;23.90;56.90;;;;;;220525;1265;24167;-61
2022/09/06 17:10:00;;;;;;;3.60;1.70;;;23.90;56.80;;;;;;220434;1268;26468;-60
2022/09/06 17:15:11;;;;;;;4.90;2.30;;;23.90;56.50;;;;;;220869;1265;23037;-61
2022/09/06 17:20:19;;;;;;;2.50;1.40;;;23.80;56.80;;;;;;221068;1265;23070;-60
2022/09/06 17:25:23;;;;;;;3.00;1.70;;;23.90;56.80;;;;;;220782;1268;22521;-61
2022/09/06 17:30:28;;;;;;;2.70;1.70;;;23.80;56.90;;;;;;220711;1267;23686;-60
2022/09/06 17:35:36;;;;;;;2.70;1.60;;;23.80;57.30;;;;;;220832;1268;25412;-63
2022/09/06 17:40:40;;;;;;;2.10;1.40;;;23.80;56.80;;;;;;220737;1265;22546;-62
2022/09/06 17:45:44;;;;;;;2.30;1.60;;;23.80;56.80;;;;;;220418;1267;24813;-59
2022/09/06 17:50:48;;;;;;;2.10;1.50;;;23.80;56.90;;;;;;220645;1270;22601;-61
2022/09/06 17:55:56;;;;;;;3.00;1.60;;;23.80;56.90;;;;;;220756;1265;22550;-60
2022/09/06 18:01:11;;;;;;;2.30;1.70;;;23.80;56.90;;;;;;220805;1265;24221;-62
2022/09/06 18:06:23;;;;;;;3.10;1.50;;;23.80;56.90;;;;;;220399;1268;22776;-59
2022/09/06 18:11:32;;;;;;;2.70;1.30;;;23.80;57.10;;;;;;220968;1270;24243;-59
2022/09/06 18:16:47;;;;;;;3.00;1.30;;;23.70;56.70;;;;;;220824;1265;24224;-57
2022/09/06 18:21:53;;;;;;;2.70;1.30;;;23.70;56.70;;;;;;220726;1269;25166;-59
2022/09/06 18:27:01;;;;;;;1.90;1.30;;;23.70;57.10;;;;;;220874;1265;25272;-59
2022/09/06 18:32:12;;;;;;;4.00;1.70;;;23.70;56.70;;;;;;220953;1270;22671;-60
2022/09/06 18:37:19;;;;;;;3.40;1.40;;;23.70;56.50;;;;;;220659;1268;22701;-59
2022/09/06 18:42:34;;;;;;;2.30;1.40;;;23.70;56.60;;;;;;220675;1265;22563;-59
2022/09/06 18:47:48;;;;;;;2.30;1.50;;;23.70;56.30;;;;;;220861;1265;22691;-63
2022/09/06 18:53:08;;;;;;;3.10;2.00;;;23.70;56.50;;;;;;221034;1265;22555;-61
2022/09/06 18:58:50;;;;;;;3.00;1.60;;;23.70;56.60;;;;;;221005;1265;23023;-59
2022/09/06 19:04:14;;;;;;;2.40;1.50;;;23.70;56.80;;;;;;220961;1265;24324;-61
2022/09/06 19:09:40;;;;;;;2.50;1.70;;;23.60;56.70;;;;;;220591;1265;24775;-59
2022/09/06 19:14:52;;;;;;;2.60;1.70;;;23.60;56.90;;;;;;221152;1270;22570;-63
2022/09/06 19:20:42;;;;;;;;;;;;;;;;;;;;;
2022/09/06 19:26:13;;;;;;;3.10;2.00;;;23.60;56.80;;;;;;220648;1265;25276;-59
2022/09/06 19:31:43;;;;;;;2.20;1.30;;;23.60;57.20;;;;;;220966;1268;24204;-61
2022/09/06 19:37:02;;;;;;;2.70;1.50;;;23.60;57.10;;;;;;219439;1265;1647969;-60
2022/09/06 19:42:23;;;;;;;2.60;1.80;;;23.60;57.20;;;;;;220690;1265;25358;-59
2022/09/06 19:48:01;;;;;;;2.70;1.60;;;23.60;56.50;;;;;;221001;1269;22570;-62
2022/09/06 19:54:15;;;;;;;2.50;1.20;;;23.60;57.00;;;;;;220913;1265;24283;-60
2022/09/06 19:59:35;;;;;;;4.80;1.40;;;23.60;57.00;;;;;;220647;1265;24338;-58
2022/09/06 20:05:09;;;;;;;2.40;1.40;;;23.60;57.00;;;;;;220592;1268;24351;-62
2022/09/06 20:10:27;;;;;;;2.90;1.60;;;23.60;57.00;;;;;;220687;1265;22748;-61
2022/09/06 20:15:32;;;;;;;2.50;1.50;;;23.60;57.00;;;;;;220479;1268;24219;-60
2022/09/06 20:20:45;;;;;;;3.80;1.70;;;23.50;57.30;;;;;;220739;1268;22848;-60
2022/09/06 20:26:10;;;;;;;2.40;1.50;;;23.50;57.00;;;;;;220865;1268;22537;-59
2022/09/06 20:31:16;;;;;;;2.70;1.50;;;23.50;57.60;;;;;;220052;1271;24356;-60
2022/09/06 20:36:21;;;;;;;2.10;1.20;;;23.50;57.00;;;;;;220571;1268;24375;-60
2022/09/06 20:41:26;;;;;;;3.30;1.60;;;23.50;57.40;;;;;;220364;1271;22701;-60
2022/09/06 20:46:33;;;;;;;4.10;1.50;;;23.50;57.10;;;;;;220375;1271;22527;-60
2022/09/06 20:51:41;;;;;;;3.20;1.30;;;23.50;57.10;;;;;;220577;1268;22557;-59
2022/09/06 20:56:45;;;;;;;2.30;1.20;;;23.50;57.10;;;;;;220957;1268;24208;-59
2022/09/06 21:01:49;;;;;;;1.90;1.30;;;23.50;57.10;;;;;;220831;1265;22836;-60
2022/09/06 21:06:53;;;;;;;2.30;1.40;;;23.40;57.00;;;;;;221113;1265;22609;-59
2022/09/06 21:11:57;;;;;;;4.50;1.80;;;23.40;57.00;;;;;;220836;1265;22706;-58
2022/09/06 21:17:02;;;;;;;2.70;1.50;;;23.40;57.00;;;;;;221222;1265;24360;-59
2022/09/06 21:22:05;;;;;;;2.30;1.50;;;23.40;57.00;;;;;;220676;1267;25476;-58
2022/09/06 21:27:10;;;;;;;2.20;1.40;;;23.40;57.30;;;;;;220683;1265;25492;-60
2022/09/06 21:32:14;;;;;;;2.40;1.30;;;23.40;57.00;;;;;;220261;1267;22631;-60
2022/09/06 21:37:18;;;;;;;3.40;1.70;;;23.30;57.30;;;;;;220199;1267;24199;-58
2022/09/06 21:42:21;;;;;;;2.30;1.50;;;23.30;57.30;;;;;;220596;1265;26693;-59
2022/09/06 21:47:25;;;;;;;2.10;1.40;;;23.40;57.00;;;;;;220818;1265;25739;-58
2022/09/06 21:52:31;;;;;;;3.50;2.00;;;23.30;56.80;;;;;;220738;1265;25497;-60
2022/09/06 21:57:35;;;;;;;2.80;1.90;;;23.30;56.70;;;;;;220792;1265;22544;-60
2022/09/06 22:02:38;;;;;;;3.00;1.80;;;23.30;56.50;;;;;;220576;1265;24874;-60
2022/09/06 22:07:42;;;;;;;5.00;1.80;;;23.30;56.60;;;;;;220626;1265;24305;-60
2022/09/06 22:12:45;;;;;;;2.40;1.60;;;23.30;56.40;;;;;;220622;1265;22531;-59
2022/09/06 22:17:49;;;;;;;2.70;1.70;;;23.30;56.40;;;;;;220568;1265;24167;-60
2022/09/06 22:22:53;;;;;;;2.40;1.60;;;23.30;56.70;;;;;;220549;1265;22784;-59
2022/09/06 22:28:01;;;;;;;2.30;1.50;;;23.30;56.50;;;;;;220546;1265;22571;-60
2022/09/06 22:33:04;;;;;;;2.70;1.70;;;23.30;57.00;;;;;;220530;1265;22540;-59
2022/09/06 22:38:08;;;;;;;2.60;1.50;;;23.20;57.00;;;;;;220269;1267;24220;-61
2022/09/06 22:43:13;;;;;;;3.80;1.60;;;23.20;57.00;;;;;;220453;1265;22547;-60
2022/09/06 22:48:24;;;;;;;2.60;1.50;;;23.20;56.90;;;;;;220252;1267;22762;-60
2022/09/06 22:53:29;;;;;;;3.00;1.80;;;23.20;56.90;;;;;;220510;1267;25487;-59
2022/09/06 22:58:35;;;;;;;3.90;1.50;;;23.20;57.00;;;;;;220192;1267;24063;-60
2022/09/06 23:03:40;;;;;;;2.20;1.50;;;23.20;57.30;;;;;;220297;1267;22747;-61
2022/09/06 23:08:44;;;;;;;3.00;1.60;;;23.20;56.90;;;;;;220448;1265;22544;-60
2022/09/06 23:13:54;;;;;;;2.90;1.80;;;23.20;57.00;;;;;;220576;1265;22734;-60
2022/09/06 23:19:10;;;;;;;3.00;1.40;;;23.20;56.90;;;;;;220499;1265;22566;-60
2022/09/06 23:24:19;;;;;;;2.10;1.40;;;23.20;57.00;;;;;;220524;1265;25325;-60
2022/09/06 23:29:23;;;;;;;2.30;1.40;;;23.20;56.50;;;;;;220400;1267;22571;-60
2022/09/06 23:34:27;;;;;;;2.30;1.60;;;23.10;56.80;;;;;;220275;1267;25379;-60
2022/09/06 23:39:33;;;;;;;2.50;1.50;;;23.10;57.10;;;;;;220613;1267;25235;-60
2022/09/06 23:44:37;;;;;;;2.30;1.70;;;23.10;56.70;;;;;;220492;1265;25227;-60
2022/09/06 23:49:49;;;;;;;3.50;1.60;;;23.10;56.80;;;;;;220823;1265;24191;-58
2022/09/06 23:54:56;;;;;;;2.20;1.60;;;23.10;56.60;;;;;;220506;1265;24198;-61
